sensor_id;sensor_type;location;lat;lon;timestamp;P1;durP1;ratioP1;P2;durP2;ratioP2
45344;SDS011;31078;48.304;11.896;2022-08-19T00:00:06;11.75;;;8.90;;
45344;SDS011;31078;48.304;11.896;2022-08-19T00:02:37;12.93;;;8.43;;
45344;SDS011;31078;48.304;11.896;2022-08-19T00:05:07;13.13;;;9.20;;
45344;SDS011;31078;48.304;11.896;2022-08-19T00:07:36;11.70;;;8.52;;
45344;SDS011;31078;48.304;11.896;2022-08-19T00:10:04;11.90;;;8.80;;
45344;SDS011;31078;48.304;11.896;2022-08-19T00:12:32;11.77;;;8.60;;
45344;SDS011;31078;48.304;11.896;2022-08-19T00:14:59;14.27;;;9.02;;
45344;SDS011;31078;48.304;11.896;2022-08-19T00:17:25;12.18;;;8.90;;
45344;SDS011;31078;48.304;11.896;2022-08-19T00:19:52;12.80;;;8.57;;
45344;SDS011;31078;48.304;11.896;2022-08-19T00:22:19;11.15;;;8.38;;
45344;SDS011;31078;48.304;11.896;2022-08-19T00:24:46;12.55;;;8.00;;
45344;SDS011;31078;48.304;11.896;2022-08-19T00:27:13;12.15;;;8.68;;
45344;SDS011;31078;48.304;11.896;2022-08-19T00:29:40;11.77;;;8.43;;
45344;SDS011;31078;48.304;11.896;2022-08-19T00:32:06;11.13;;;8.38;;
45344;SDS011;31078;48.304;11.896;2022-08-19T00:34:33;12.80;;;8.45;;
45344;SDS011;31078;48.304;11.896;2022-08-19T00:37:00;12.50;;;8.43;;
45344;SDS011;31078;48.304;11.896;2022-08-19T00:39:26;11.27;;;8.32;;
45344;SDS011;31078;48.304;11.896;2022-08-19T00:41:54;12.35;;;8.48;;
45344;SDS011;31078;48.304;11.896;2022-08-19T00:44:23;11.82;;;8.48;;
45344;SDS011;31078;48.304;11.896;2022-08-19T00:46:51;10.65;;;8.07;;
45344;SDS011;31078;48.304;11.896;2022-08-19T00:49:20;11.50;;;8.07;;
45344;SDS011;31078;48.304;11.896;2022-08-19T00:51:53;9.18;;;7.50;;
45344;SDS011;31078;48.304;11.896;2022-08-19T00:54:24;12.67;;;8.23;;
45344;SDS011;31078;48.304;11.896;2022-08-19T00:56:51;10.57;;;8.18;;
45344;SDS011;31078;48.304;11.896;2022-08-19T00:59:20;12.68;;;8.57;;
45344;SDS011;31078;48.304;11.896;2022-08-19T01:01:47;12.18;;;8.50;;
45344;SDS011;31078;48.304;11.896;2022-08-19T01:04:15;11.15;;;8.15;;
45344;SDS011;31078;48.304;11.896;2022-08-19T01:06:42;12.60;;;7.97;;
45344;SDS011;31078;48.304;11.896;2022-08-19T01:09:08;11.85;;;8.43;;
45344;SDS011;31078;48.304;11.896;2022-08-19T01:11:38;12.23;;;8.18;;
45344;SDS011;31078;48.304;11.896;2022-08-19T01:14:09;11.65;;;8.65;;
45344;SDS011;31078;48.304;11.896;2022-08-19T01:16:37;10.75;;;7.72;;
45344;SDS011;31078;48.304;11.896;2022-08-19T01:19:08;12.05;;;8.75;;
45344;SDS011;31078;48.304;11.896;2022-08-19T01:21:48;13.15;;;8.55;;
45344;SDS011;31078;48.304;11.896;2022-08-19T01:24:19;12.63;;;8.82;;
45344;SDS011;31078;48.304;11.896;2022-08-19T01:26:46;14.20;;;8.50;;
45344;SDS011;31078;48.304;11.896;2022-08-19T01:29:13;11.05;;;7.80;;
45344;SDS011;31078;48.304;11.896;2022-08-19T01:31:40;11.23;;;7.53;;
45344;SDS011;31078;48.304;11.896;2022-08-19T01:34:07;10.73;;;8.15;;
45344;SDS011;31078;48.304;11.896;2022-08-19T01:36:37;10.35;;;7.82;;
45344;SDS011;31078;48.304;11.896;2022-08-19T01:39:08;10.18;;;7.35;;
45344;SDS011;31078;48.304;11.896;2022-08-19T01:41:38;9.63;;;7.03;;
45344;SDS011;31078;48.304;11.896;2022-08-19T01:44:05;13.05;;;8.48;;
45344;SDS011;31078;48.304;11.896;2022-08-19T01:46:33;14.05;;;7.95;;
45344;SDS011;31078;48.304;11.896;2022-08-19T01:49:00;10.88;;;7.82;;
45344;SDS011;31078;48.304;11.896;2022-08-19T01:51:27;11.20;;;8.82;;
45344;SDS011;31078;48.304;11.896;2022-08-19T01:53:58;12.70;;;8.07;;
45344;SDS011;31078;48.304;11.896;2022-08-19T01:56:24;14.32;;;7.97;;
45344;SDS011;31078;48.304;11.896;2022-08-19T01:58:53;11.45;;;7.82;;
45344;SDS011;31078;48.304;11.896;2022-08-19T02:01:21;11.27;;;8.35;;
45344;SDS011;31078;48.304;11.896;2022-08-19T02:03:48;14.80;;;9.48;;
45344;SDS011;31078;48.304;11.896;2022-08-19T02:06:15;13.60;;;8.90;;
45344;SDS011;31078;48.304;11.896;2022-08-19T02:08:44;12.70;;;8.18;;
45344;SDS011;31078;48.304;11.896;2022-08-19T02:11:17;12.65;;;8.80;;
45344;SDS011;31078;48.304;11.896;2022-08-19T02:13:46;11.32;;;8.55;;
45344;SDS011;31078;48.304;11.896;2022-08-19T02:16:15;13.27;;;9.25;;
45344;SDS011;31078;48.304;11.896;2022-08-19T02:18:42;10.13;;;7.72;;
45344;SDS011;31078;48.304;11.896;2022-08-19T02:21:09;15.48;;;9.18;;
45344;SDS011;31078;48.304;11.896;2022-08-19T02:23:35;12.10;;;9.32;;
45344;SDS011;31078;48.304;11.896;2022-08-19T02:26:02;14.07;;;10.63;;
45344;SDS011;31078;48.304;11.896;2022-08-19T02:28:28;15.30;;;11.18;;
45344;SDS011;31078;48.304;11.896;2022-08-19T02:30:55;14.02;;;10.30;;
45344;SDS011;31078;48.304;11.896;2022-08-19T02:33:23;15.18;;;11.43;;
45344;SDS011;31078;48.304;11.896;2022-08-19T02:35:50;17.63;;;11.23;;
45344;SDS011;31078;48.304;11.896;2022-08-19T02:38:16;18.10;;;12.30;;
45344;SDS011;31078;48.304;11.896;2022-08-19T02:40:51;16.98;;;12.35;;
45344;SDS011;31078;48.304;11.896;2022-08-19T02:43:19;17.08;;;12.18;;
45344;SDS011;31078;48.304;11.896;2022-08-19T02:45:46;17.90;;;11.57;;
45344;SDS011;31078;48.304;11.896;2022-08-19T02:48:14;18.88;;;12.57;;
45344;SDS011;31078;48.304;11.896;2022-08-19T02:50:44;19.58;;;13.90;;
45344;SDS011;31078;48.304;11.896;2022-08-19T02:53:11;17.38;;;12.40;;
45344;SDS011;31078;48.304;11.896;2022-08-19T02:55:41;15.35;;;11.38;;
45344;SDS011;31078;48.304;11.896;2022-08-19T02:58:09;15.90;;;10.57;;
45344;SDS011;31078;48.304;11.896;2022-08-19T03:00:40;14.02;;;10.55;;
45344;SDS011;31078;48.304;11.896;2022-08-19T03:03:09;16.88;;;11.77;;
45344;SDS011;31078;48.304;11.896;2022-08-19T03:05:35;14.75;;;11.38;;
45344;SDS011;31078;48.304;11.896;2022-08-19T03:08:03;15.45;;;11.60;;
45344;SDS011;31078;48.304;11.896;2022-08-19T03:10:30;16.23;;;11.05;;
45344;SDS011;31078;48.304;11.896;2022-08-19T03:12:57;19.55;;;12.30;;
45344;SDS011;31078;48.304;11.896;2022-08-19T03:15:24;17.15;;;11.98;;
45344;SDS011;31078;48.304;11.896;2022-08-19T03:17:51;17.42;;;12.23;;
45344;SDS011;31078;48.304;11.896;2022-08-19T03:20:17;15.82;;;11.50;;
45344;SDS011;31078;48.304;11.896;2022-08-19T03:22:44;17.83;;;11.32;;
45344;SDS011;31078;48.304;11.896;2022-08-19T03:25:12;16.08;;;10.90;;
45344;SDS011;31078;48.304;11.896;2022-08-19T03:27:39;13.90;;;10.48;;
45344;SDS011;31078;48.304;11.896;2022-08-19T03:30:06;14.40;;;10.60;;
45344;SDS011;31078;48.304;11.896;2022-08-19T03:32:33;15.15;;;10.63;;
45344;SDS011;31078;48.304;11.896;2022-08-19T03:35:00;14.75;;;10.98;;
45344;SDS011;31078;48.304;11.896;2022-08-19T03:37:27;14.55;;;10.35;;
45344;SDS011;31078;48.304;11.896;2022-08-19T03:39:54;19.33;;;10.88;;
45344;SDS011;31078;48.304;11.896;2022-08-19T03:42:22;16.70;;;10.90;;
45344;SDS011;31078;48.304;11.896;2022-08-19T03:44:49;14.85;;;11.25;;
45344;SDS011;31078;48.304;11.896;2022-08-19T03:47:16;15.93;;;11.75;;
45344;SDS011;31078;48.304;11.896;2022-08-19T03:49:43;17.33;;;12.05;;
45344;SDS011;31078;48.304;11.896;2022-08-19T03:52:10;16.13;;;10.75;;
45344;SDS011;31078;48.304;11.896;2022-08-19T03:54:37;19.15;;;12.98;;
45344;SDS011;31078;48.304;11.896;2022-08-19T03:57:04;17.25;;;11.68;;
45344;SDS011;31078;48.304;11.896;2022-08-19T03:59:33;17.88;;;12.48;;
45344;SDS011;31078;48.304;11.896;2022-08-19T04:02:03;17.35;;;12.52;;
45344;SDS011;31078;48.304;11.896;2022-08-19T04:04:34;17.65;;;11.48;;
45344;SDS011;31078;48.304;11.896;2022-08-19T04:07:01;17.67;;;13.05;;
45344;SDS011;31078;48.304;11.896;2022-08-19T04:09:28;17.42;;;12.20;;
45344;SDS011;31078;48.304;11.896;2022-08-19T04:11:57;16.35;;;11.73;;
45344;SDS011;31078;48.304;11.896;2022-08-19T04:14:25;16.63;;;12.20;;
45344;SDS011;31078;48.304;11.896;2022-08-19T04:16:56;15.80;;;11.45;;
45344;SDS011;31078;48.304;11.896;2022-08-19T04:19:23;15.52;;;11.02;;
45344;SDS011;31078;48.304;11.896;2022-08-19T04:21:51;15.23;;;11.35;;
45344;SDS011;31078;48.304;11.896;2022-08-19T04:24:20;15.57;;;10.85;;
45344;SDS011;31078;48.304;11.896;2022-08-19T04:26:47;14.27;;;10.90;;
45344;SDS011;31078;48.304;11.896;2022-08-19T04:29:15;13.30;;;9.68;;
45344;SDS011;31078;48.304;11.896;2022-08-19T04:31:46;18.20;;;11.63;;
45344;SDS011;31078;48.304;11.896;2022-08-19T04:34:15;18.60;;;12.43;;
45344;SDS011;31078;48.304;11.896;2022-08-19T04:36:44;15.05;;;11.70;;
45344;SDS011;31078;48.304;11.896;2022-08-19T04:39:11;15.13;;;10.93;;
45344;SDS011;31078;48.304;11.896;2022-08-19T04:41:39;17.48;;;11.00;;
45344;SDS011;31078;48.304;11.896;2022-08-19T04:44:23;15.45;;;11.90;;
45344;SDS011;31078;48.304;11.896;2022-08-19T04:46:50;15.40;;;11.20;;
45344;SDS011;31078;48.304;11.896;2022-08-19T04:49:19;14.60;;;10.48;;
45344;SDS011;31078;48.304;11.896;2022-08-19T04:51:47;17.02;;;11.63;;
45344;SDS011;31078;48.304;11.896;2022-08-19T04:54:17;15.55;;;10.60;;
45344;SDS011;31078;48.304;11.896;2022-08-19T04:56:47;13.82;;;10.10;;
45344;SDS011;31078;48.304;11.896;2022-08-19T04:59:15;17.33;;;11.00;;
45344;SDS011;31078;48.304;11.896;2022-08-19T05:01:43;14.63;;;11.02;;
45344;SDS011;31078;48.304;11.896;2022-08-19T05:04:14;12.57;;;9.45;;
45344;SDS011;31078;48.304;11.896;2022-08-19T05:06:44;13.65;;;10.32;;
45344;SDS011;31078;48.304;11.896;2022-08-19T05:09:10;15.45;;;11.70;;
45344;SDS011;31078;48.304;11.896;2022-08-19T05:11:37;14.63;;;10.30;;
45344;SDS011;31078;48.304;11.896;2022-08-19T05:14:04;16.35;;;11.18;;
45344;SDS011;31078;48.304;11.896;2022-08-19T05:16:31;16.50;;;11.27;;
45344;SDS011;31078;48.304;11.896;2022-08-19T05:18:58;14.18;;;10.95;;
45344;SDS011;31078;48.304;11.896;2022-08-19T05:21:43;16.73;;;11.70;;
45344;SDS011;31078;48.304;11.896;2022-08-19T05:24:28;15.70;;;11.45;;
45344;SDS011;31078;48.304;11.896;2022-08-19T05:26:56;16.10;;;10.95;;
45344;SDS011;31078;48.304;11.896;2022-08-19T05:29:24;14.80;;;10.90;;
45344;SDS011;31078;48.304;11.896;2022-08-19T05:31:53;20.52;;;12.63;;
45344;SDS011;31078;48.304;11.896;2022-08-19T05:34:20;15.90;;;11.88;;
45344;SDS011;31078;48.304;11.896;2022-08-19T05:36:53;17.27;;;12.07;;
45344;SDS011;31078;48.304;11.896;2022-08-19T05:39:21;15.77;;;11.57;;
45344;SDS011;31078;48.304;11.896;2022-08-19T05:41:49;16.88;;;11.65;;
45344;SDS011;31078;48.304;11.896;2022-08-19T05:44:18;17.33;;;11.98;;
45344;SDS011;31078;48.304;11.896;2022-08-19T05:46:46;17.25;;;12.32;;
45344;SDS011;31078;48.304;11.896;2022-08-19T05:49:13;18.30;;;12.63;;
45344;SDS011;31078;48.304;11.896;2022-08-19T05:51:41;18.92;;;12.15;;
45344;SDS011;31078;48.304;11.896;2022-08-19T05:54:09;16.77;;;11.10;;
45344;SDS011;31078;48.304;11.896;2022-08-19T05:56:38;15.93;;;11.68;;
45344;SDS011;31078;48.304;11.896;2022-08-19T05:59:06;16.05;;;11.40;;
45344;SDS011;31078;48.304;11.896;2022-08-19T06:01:35;15.80;;;11.85;;
45344;SDS011;31078;48.304;11.896;2022-08-19T06:04:02;18.98;;;11.40;;
45344;SDS011;31078;48.304;11.896;2022-08-19T06:06:29;17.27;;;11.20;;
45344;SDS011;31078;48.304;11.896;2022-08-19T06:08:56;18.23;;;12.80;;
45344;SDS011;31078;48.304;11.896;2022-08-19T06:11:25;18.27;;;12.88;;
45344;SDS011;31078;48.304;11.896;2022-08-19T06:14:00;17.15;;;12.05;;
45344;SDS011;31078;48.304;11.896;2022-08-19T06:16:28;20.02;;;14.43;;
45344;SDS011;31078;48.304;11.896;2022-08-19T06:18:58;17.92;;;12.35;;
45344;SDS011;31078;48.304;11.896;2022-08-19T06:21:27;21.13;;;13.32;;
45344;SDS011;31078;48.304;11.896;2022-08-19T06:23:55;19.08;;;13.80;;
45344;SDS011;31078;48.304;11.896;2022-08-19T06:26:22;18.25;;;13.27;;
45344;SDS011;31078;48.304;11.896;2022-08-19T06:28:51;20.60;;;13.25;;
45344;SDS011;31078;48.304;11.896;2022-08-19T06:31:18;21.05;;;14.65;;
45344;SDS011;31078;48.304;11.896;2022-08-19T06:33:48;19.35;;;13.77;;
45344;SDS011;31078;48.304;11.896;2022-08-19T06:36:19;19.55;;;13.82;;
45344;SDS011;31078;48.304;11.896;2022-08-19T06:38:47;17.88;;;12.43;;
45344;SDS011;31078;48.304;11.896;2022-08-19T06:41:13;23.63;;;14.15;;
45344;SDS011;31078;48.304;11.896;2022-08-19T06:43:41;19.52;;;14.13;;
45344;SDS011;31078;48.304;11.896;2022-08-19T06:46:09;23.65;;;14.43;;
45344;SDS011;31078;48.304;11.896;2022-08-19T06:48:38;18.35;;;12.52;;
45344;SDS011;31078;48.304;11.896;2022-08-19T06:51:04;23.23;;;14.77;;
45344;SDS011;31078;48.304;11.896;2022-08-19T06:53:31;22.33;;;14.68;;
45344;SDS011;31078;48.304;11.896;2022-08-19T06:55:58;20.38;;;13.80;;
45344;SDS011;31078;48.304;11.896;2022-08-19T06:58:27;20.38;;;14.50;;
45344;SDS011;31078;48.304;11.896;2022-08-19T07:00:58;23.02;;;15.07;;
45344;SDS011;31078;48.304;11.896;2022-08-19T07:03:27;20.88;;;14.82;;
45344;SDS011;31078;48.304;11.896;2022-08-19T07:05:56;22.70;;;14.18;;
45344;SDS011;31078;48.304;11.896;2022-08-19T07:08:24;22.23;;;15.27;;
45344;SDS011;31078;48.304;11.896;2022-08-19T07:10:51;22.60;;;15.57;;
45344;SDS011;31078;48.304;11.896;2022-08-19T07:13:18;21.33;;;14.60;;
45344;SDS011;31078;48.304;11.896;2022-08-19T07:15:46;24.63;;;15.75;;
45344;SDS011;31078;48.304;11.896;2022-08-19T07:18:16;27.58;;;17.02;;
45344;SDS011;31078;48.304;11.896;2022-08-19T07:20:43;29.52;;;18.08;;
45344;SDS011;31078;48.304;11.896;2022-08-19T07:23:10;23.02;;;15.40;;
45344;SDS011;31078;48.304;11.896;2022-08-19T07:25:37;25.75;;;15.90;;
45344;SDS011;31078;48.304;11.896;2022-08-19T07:28:04;27.85;;;17.80;;
45344;SDS011;31078;48.304;11.896;2022-08-19T07:30:32;24.73;;;16.73;;
45344;SDS011;31078;48.304;11.896;2022-08-19T07:33:01;28.88;;;17.60;;
45344;SDS011;31078;48.304;11.896;2022-08-19T07:35:29;28.45;;;17.77;;
45344;SDS011;31078;48.304;11.896;2022-08-19T07:37:57;31.70;;;19.45;;
45344;SDS011;31078;48.304;11.896;2022-08-19T07:40:24;33.50;;;20.85;;
45344;SDS011;31078;48.304;11.896;2022-08-19T07:42:50;32.45;;;20.63;;
45344;SDS011;31078;48.304;11.896;2022-08-19T07:45:17;32.83;;;21.30;;
45344;SDS011;31078;48.304;11.896;2022-08-19T07:47:43;33.20;;;19.85;;
45344;SDS011;31078;48.304;11.896;2022-08-19T07:50:11;36.30;;;22.92;;
45344;SDS011;31078;48.304;11.896;2022-08-19T07:52:39;35.38;;;22.02;;
45344;SDS011;31078;48.304;11.896;2022-08-19T07:55:10;31.67;;;20.05;;
45344;SDS011;31078;48.304;11.896;2022-08-19T07:57:36;31.40;;;20.52;;
45344;SDS011;31078;48.304;11.896;2022-08-19T08:00:04;30.42;;;20.08;;
45344;SDS011;31078;48.304;11.896;2022-08-19T08:02:32;32.42;;;20.73;;
45344;SDS011;31078;48.304;11.896;2022-08-19T08:04:58;30.88;;;19.50;;
45344;SDS011;31078;48.304;11.896;2022-08-19T08:07:43;35.47;;;21.30;;
45344;SDS011;31078;48.304;11.896;2022-08-19T08:10:28;31.60;;;19.90;;
45344;SDS011;31078;48.304;11.896;2022-08-19T08:12:54;31.02;;;19.63;;
45344;SDS011;31078;48.304;11.896;2022-08-19T08:15:21;32.13;;;20.40;;
45344;SDS011;31078;48.304;11.896;2022-08-19T08:17:47;33.80;;;20.73;;
45344;SDS011;31078;48.304;11.896;2022-08-19T08:20:14;30.40;;;19.83;;
45344;SDS011;31078;48.304;11.896;2022-08-19T08:22:44;34.08;;;21.45;;
45344;SDS011;31078;48.304;11.896;2022-08-19T08:25:28;36.92;;;22.52;;
45344;SDS011;31078;48.304;11.896;2022-08-19T08:27:56;33.90;;;21.55;;
45344;SDS011;31078;48.304;11.896;2022-08-19T08:30:25;30.05;;;20.08;;
45344;SDS011;31078;48.304;11.896;2022-08-19T08:32:53;29.80;;;20.40;;
45344;SDS011;31078;48.304;11.896;2022-08-19T08:35:20;31.50;;;19.65;;
45344;SDS011;31078;48.304;11.896;2022-08-19T08:37:51;28.65;;;18.88;;
45344;SDS011;31078;48.304;11.896;2022-08-19T08:40:21;32.60;;;21.10;;
45344;SDS011;31078;48.304;11.896;2022-08-19T08:42:55;30.73;;;21.40;;
45344;SDS011;31078;48.304;11.896;2022-08-19T08:45:27;38.90;;;23.85;;
45344;SDS011;31078;48.304;11.896;2022-08-19T08:47:55;40.75;;;25.63;;
45344;SDS011;31078;48.304;11.896;2022-08-19T08:50:29;39.42;;;24.33;;
45344;SDS011;31078;48.304;11.896;2022-08-19T08:55:30;35.75;;;22.67;;
45344;SDS011;31078;48.304;11.896;2022-08-19T08:57:59;42.35;;;25.88;;
45344;SDS011;31078;48.304;11.896;2022-08-19T09:00:29;35.25;;;21.42;;
45344;SDS011;31078;48.304;11.896;2022-08-19T09:02:58;30.33;;;20.30;;
45344;SDS011;31078;48.304;11.896;2022-08-19T09:05:29;36.40;;;22.83;;
45344;SDS011;31078;48.304;11.896;2022-08-19T09:08:04;35.28;;;21.23;;
45344;SDS011;31078;48.304;11.896;2022-08-19T09:10:34;30.50;;;21.15;;
45344;SDS011;31078;48.304;11.896;2022-08-19T09:13:09;31.48;;;20.50;;
45344;SDS011;31078;48.304;11.896;2022-08-19T09:15:43;33.30;;;22.02;;
45344;SDS011;31078;48.304;11.896;2022-08-19T09:18:13;34.30;;;22.52;;
45344;SDS011;31078;48.304;11.896;2022-08-19T09:20:41;37.45;;;23.63;;
45344;SDS011;31078;48.304;11.896;2022-08-19T09:23:09;34.08;;;21.75;;
45344;SDS011;31078;48.304;11.896;2022-08-19T09:25:36;35.60;;;23.50;;
45344;SDS011;31078;48.304;11.896;2022-08-19T09:28:05;35.63;;;23.65;;
45344;SDS011;31078;48.304;11.896;2022-08-19T09:30:32;37.58;;;23.58;;
45344;SDS011;31078;48.304;11.896;2022-08-19T09:33:04;35.60;;;23.25;;
45344;SDS011;31078;48.304;11.896;2022-08-19T09:35:31;37.05;;;22.42;;
45344;SDS011;31078;48.304;11.896;2022-08-19T09:37:58;39.88;;;24.52;;
45344;SDS011;31078;48.304;11.896;2022-08-19T09:40:27;41.92;;;25.33;;
45344;SDS011;31078;48.304;11.896;2022-08-19T09:42:54;41.22;;;24.48;;
45344;SDS011;31078;48.304;11.896;2022-08-19T09:45:22;40.67;;;24.55;;
45344;SDS011;31078;48.304;11.896;2022-08-19T09:47:49;41.60;;;24.67;;
45344;SDS011;31078;48.304;11.896;2022-08-19T09:50:16;42.17;;;25.23;;
45344;SDS011;31078;48.304;11.896;2022-08-19T09:52:43;38.05;;;23.67;;
45344;SDS011;31078;48.304;11.896;2022-08-19T09:55:10;33.42;;;22.15;;
45344;SDS011;31078;48.304;11.896;2022-08-19T09:57:39;33.17;;;21.45;;
45344;SDS011;31078;48.304;11.896;2022-08-19T10:00:06;36.55;;;21.48;;
45344;SDS011;31078;48.304;11.896;2022-08-19T10:02:35;38.88;;;25.55;;
45344;SDS011;31078;48.304;11.896;2022-08-19T10:05:02;31.92;;;21.05;;
45344;SDS011;31078;48.304;11.896;2022-08-19T10:07:46;33.22;;;22.70;;
45344;SDS011;31078;48.304;11.896;2022-08-19T10:10:13;33.72;;;23.27;;
45344;SDS011;31078;48.304;11.896;2022-08-19T10:12:41;36.58;;;23.95;;
45344;SDS011;31078;48.304;11.896;2022-08-19T10:15:13;30.23;;;20.30;;
45344;SDS011;31078;48.304;11.896;2022-08-19T10:17:39;33.72;;;22.52;;
45344;SDS011;31078;48.304;11.896;2022-08-19T10:20:06;34.40;;;22.88;;
45344;SDS011;31078;48.304;11.896;2022-08-19T10:22:33;31.77;;;20.15;;
45344;SDS011;31078;48.304;11.896;2022-08-19T10:25:02;32.65;;;21.52;;
45344;SDS011;31078;48.304;11.896;2022-08-19T10:27:30;32.95;;;21.23;;
45344;SDS011;31078;48.304;11.896;2022-08-19T10:29:58;32.30;;;21.83;;
45344;SDS011;31078;48.304;11.896;2022-08-19T10:32:25;37.65;;;23.08;;
45344;SDS011;31078;48.304;11.896;2022-08-19T10:34:51;36.75;;;23.10;;
45344;SDS011;31078;48.304;11.896;2022-08-19T10:37:18;39.38;;;26.15;;
45344;SDS011;31078;48.304;11.896;2022-08-19T10:39:45;41.20;;;25.60;;
45344;SDS011;31078;48.304;11.896;2022-08-19T10:42:12;42.45;;;26.20;;
45344;SDS011;31078;48.304;11.896;2022-08-19T10:44:40;38.35;;;24.85;;
45344;SDS011;31078;48.304;11.896;2022-08-19T10:47:09;38.03;;;25.15;;
45344;SDS011;31078;48.304;11.896;2022-08-19T10:49:36;36.40;;;24.45;;
45344;SDS011;31078;48.304;11.896;2022-08-19T10:52:23;39.25;;;25.33;;
45344;SDS011;31078;48.304;11.896;2022-08-19T10:54:58;35.55;;;23.10;;
45344;SDS011;31078;48.304;11.896;2022-08-19T10:57:42;35.30;;;24.35;;
45344;SDS011;31078;48.304;11.896;2022-08-19T11:00:10;39.45;;;25.45;;
45344;SDS011;31078;48.304;11.896;2022-08-19T11:02:40;34.97;;;21.50;;
45344;SDS011;31078;48.304;11.896;2022-08-19T11:05:07;38.20;;;25.08;;
45344;SDS011;31078;48.304;11.896;2022-08-19T11:07:35;36.30;;;23.70;;
45344;SDS011;31078;48.304;11.896;2022-08-19T11:10:03;34.30;;;23.13;;
45344;SDS011;31078;48.304;11.896;2022-08-19T11:12:30;39.28;;;24.17;;
45344;SDS011;31078;48.304;11.896;2022-08-19T11:14:57;33.55;;;22.02;;
45344;SDS011;31078;48.304;11.896;2022-08-19T11:17:24;39.70;;;25.05;;
45344;SDS011;31078;48.304;11.896;2022-08-19T11:19:52;35.47;;;23.25;;
45344;SDS011;31078;48.304;11.896;2022-08-19T11:22:18;37.05;;;23.75;;
45344;SDS011;31078;48.304;11.896;2022-08-19T11:24:45;36.80;;;23.52;;
45344;SDS011;31078;48.304;11.896;2022-08-19T11:27:11;34.22;;;21.70;;
45344;SDS011;31078;48.304;11.896;2022-08-19T11:29:39;34.72;;;21.35;;
45344;SDS011;31078;48.304;11.896;2022-08-19T11:32:07;34.60;;;22.52;;
45344;SDS011;31078;48.304;11.896;2022-08-19T11:34:36;35.13;;;22.15;;
45344;SDS011;31078;48.304;11.896;2022-08-19T11:37:05;36.25;;;24.63;;
45344;SDS011;31078;48.304;11.896;2022-08-19T11:39:34;38.65;;;23.80;;
45344;SDS011;31078;48.304;11.896;2022-08-19T11:42:02;34.20;;;21.90;;
45344;SDS011;31078;48.304;11.896;2022-08-19T11:44:50;30.40;;;19.80;;
45344;SDS011;31078;48.304;11.896;2022-08-19T11:47:16;32.03;;;20.70;;
45344;SDS011;31078;48.304;11.896;2022-08-19T11:49:43;36.38;;;20.92;;
45344;SDS011;31078;48.304;11.896;2022-08-19T11:52:11;29.90;;;19.00;;
45344;SDS011;31078;48.304;11.896;2022-08-19T11:54:37;21.67;;;15.65;;
45344;SDS011;31078;48.304;11.896;2022-08-19T11:57:04;24.90;;;15.40;;
45344;SDS011;31078;48.304;11.896;2022-08-19T11:59:31;24.83;;;15.45;;
45344;SDS011;31078;48.304;11.896;2022-08-19T12:01:57;23.95;;;15.60;;
45344;SDS011;31078;48.304;11.896;2022-08-19T12:04:24;24.67;;;15.80;;
45344;SDS011;31078;48.304;11.896;2022-08-19T12:06:50;23.10;;;15.57;;
45344;SDS011;31078;48.304;11.896;2022-08-19T12:09:19;21.90;;;15.40;;
45344;SDS011;31078;48.304;11.896;2022-08-19T12:11:47;24.85;;;16.73;;
45344;SDS011;31078;48.304;11.896;2022-08-19T12:14:13;24.25;;;16.88;;
45344;SDS011;31078;48.304;11.896;2022-08-19T12:16:40;23.33;;;14.93;;
45344;SDS011;31078;48.304;11.896;2022-08-19T12:19:07;22.90;;;14.48;;
45344;SDS011;31078;48.304;11.896;2022-08-19T12:21:34;20.25;;;13.82;;
45344;SDS011;31078;48.304;11.896;2022-08-19T12:24:02;19.70;;;11.40;;
45344;SDS011;31078;48.304;11.896;2022-08-19T12:26:32;16.67;;;11.18;;
45344;SDS011;31078;48.304;11.896;2022-08-19T12:28:58;17.08;;;11.02;;
45344;SDS011;31078;48.304;11.896;2022-08-19T12:31:25;14.95;;;9.70;;
45344;SDS011;31078;48.304;11.896;2022-08-19T12:33:53;13.82;;;8.25;;
45344;SDS011;31078;48.304;11.896;2022-08-19T12:36:19;13.00;;;8.10;;
45344;SDS011;31078;48.304;11.896;2022-08-19T12:38:47;12.73;;;7.07;;
45344;SDS011;31078;48.304;11.896;2022-08-19T12:41:14;8.77;;;5.82;;
45344;SDS011;31078;48.304;11.896;2022-08-19T12:43:44;6.22;;;3.95;;
45344;SDS011;31078;48.304;11.896;2022-08-19T12:46:14;8.80;;;4.25;;
45344;SDS011;31078;48.304;11.896;2022-08-19T12:48:41;8.77;;;4.63;;
45344;SDS011;31078;48.304;11.896;2022-08-19T12:51:11;6.50;;;4.13;;
45344;SDS011;31078;48.304;11.896;2022-08-19T12:53:40;9.30;;;5.03;;
45344;SDS011;31078;48.304;11.896;2022-08-19T12:56:07;10.52;;;4.88;;
45344;SDS011;31078;48.304;11.896;2022-08-19T12:58:33;8.38;;;4.68;;
45344;SDS011;31078;48.304;11.896;2022-08-19T13:01:07;7.70;;;4.32;;
45344;SDS011;31078;48.304;11.896;2022-08-19T13:03:34;11.23;;;5.32;;
45344;SDS011;31078;48.304;11.896;2022-08-19T13:06:01;7.30;;;3.70;;
45344;SDS011;31078;48.304;11.896;2022-08-19T13:08:28;10.15;;;5.35;;
45344;SDS011;31078;48.304;11.896;2022-08-19T13:10:55;4.75;;;2.10;;
45344;SDS011;31078;48.304;11.896;2022-08-19T13:13:23;4.80;;;2.15;;
45344;SDS011;31078;48.304;11.896;2022-08-19T13:15:50;4.28;;;2.00;;
45344;SDS011;31078;48.304;11.896;2022-08-19T13:18:19;4.35;;;1.83;;
45344;SDS011;31078;48.304;11.896;2022-08-19T13:20:45;3.83;;;1.75;;
45344;SDS011;31078;48.304;11.896;2022-08-19T13:23:12;3.25;;;1.63;;
45344;SDS011;31078;48.304;11.896;2022-08-19T13:25:38;6.88;;;2.28;;
45344;SDS011;31078;48.304;11.896;2022-08-19T13:28:05;4.80;;;2.08;;
45344;SDS011;31078;48.304;11.896;2022-08-19T13:30:31;4.78;;;2.10;;
45344;SDS011;31078;48.304;11.896;2022-08-19T13:33:23;4.40;;;1.88;;
45344;SDS011;31078;48.304;11.896;2022-08-19T13:35:56;4.47;;;1.75;;
45344;SDS011;31078;48.304;11.896;2022-08-19T13:38:25;3.33;;;1.65;;
45344;SDS011;31078;48.304;11.896;2022-08-19T13:40:53;5.45;;;2.20;;
45344;SDS011;31078;48.304;11.896;2022-08-19T13:43:21;5.65;;;2.00;;
45344;SDS011;31078;48.304;11.896;2022-08-19T13:45:50;7.70;;;2.83;;
45344;SDS011;31078;48.304;11.896;2022-08-19T13:48:18;3.92;;;1.90;;
45344;SDS011;31078;48.304;11.896;2022-08-19T13:50:46;5.25;;;2.50;;
45344;SDS011;31078;48.304;11.896;2022-08-19T13:53:13;4.25;;;2.20;;
45344;SDS011;31078;48.304;11.896;2022-08-19T13:55:41;3.47;;;1.60;;
45344;SDS011;31078;48.304;11.896;2022-08-19T13:58:09;4.25;;;2.20;;
45344;SDS011;31078;48.304;11.896;2022-08-19T14:00:38;6.22;;;2.95;;
45344;SDS011;31078;48.304;11.896;2022-08-19T14:03:07;6.72;;;3.25;;
45344;SDS011;31078;48.304;11.896;2022-08-19T14:05:34;6.25;;;3.03;;
45344;SDS011;31078;48.304;11.896;2022-08-19T14:08:02;4.68;;;2.83;;
45344;SDS011;31078;48.304;11.896;2022-08-19T14:10:29;5.70;;;3.00;;
45344;SDS011;31078;48.304;11.896;2022-08-19T14:12:57;5.25;;;2.95;;
45344;SDS011;31078;48.304;11.896;2022-08-19T14:15:25;5.30;;;2.92;;
45344;SDS011;31078;48.304;11.896;2022-08-19T14:17:52;7.10;;;3.20;;
45344;SDS011;31078;48.304;11.896;2022-08-19T14:20:19;5.78;;;3.08;;
45344;SDS011;31078;48.304;11.896;2022-08-19T14:22:47;5.45;;;2.70;;